createdAt,value
2019-05-17T00:00:57.430Z,99.90
2019-05-17T00:03:24.018Z,99.90
2019-05-17T00:05:50.393Z,99.90
2019-05-17T00:08:30.845Z,99.90
2019-05-17T00:10:46.522Z,99.90
2019-05-17T00:13:14.665Z,99.90
2019-05-17T00:15:41.141Z,99.90
2019-05-17T00:18:07.832Z,99.90
2019-05-17T00:20:34.317Z,99.90
2019-05-17T00:23:00.807Z,99.90
2019-05-17T00:25:27.602Z,99.90
2019-05-17T00:27:56.283Z,99.90
2019-05-17T00:30:22.464Z,99.90
2019-05-17T00:32:49.302Z,99.90
2019-05-17T00:35:17.809Z,99.90
2019-05-17T00:37:46.396Z,99.90
2019-05-17T00:40:12.822Z,99.90
2019-05-17T00:42:39.093Z,99.90
2019-05-17T00:45:06.709Z,99.90
2019-05-17T00:47:33.370Z,99.90
2019-05-17T00:49:59.923Z,99.90
2019-05-17T00:52:27.275Z,99.90
2019-05-17T00:54:56.232Z,99.90
2019-05-17T00:57:22.206Z,99.90
2019-05-17T00:59:48.785Z,99.90
2019-05-17T01:02:16.312Z,99.90
2019-05-17T01:04:42.905Z,99.90
2019-05-17T01:07:09.281Z,99.90
2019-05-17T01:09:36.634Z,99.90
2019-05-17T01:12:03.349Z,99.90
2019-05-17T01:14:29.950Z,99.90
2019-05-17T01:16:56.598Z,99.90
2019-05-17T01:19:22.921Z,99.90
2019-05-17T01:21:49.411Z,99.90
2019-05-17T01:24:17.266Z,99.90
2019-05-17T01:26:44.166Z,99.90
2019-05-17T01:29:13.009Z,99.90
2019-05-17T01:31:40.534Z,99.90
2019-05-17T01:34:07.507Z,99.90
2019-05-17T01:36:33.913Z,99.90
2019-05-17T01:39:00.291Z,99.90
2019-05-17T01:41:26.733Z,99.90
2019-05-17T01:43:53.215Z,99.90
2019-05-17T01:46:19.596Z,99.90
2019-05-17T01:48:47.071Z,99.90
2019-05-17T01:51:13.848Z,99.90
2019-05-17T01:53:40.437Z,99.90
2019-05-17T01:56:07.070Z,99.90
2019-05-17T01:58:33.566Z,99.90
2019-05-17T02:01:00.018Z,99.90
2019-05-17T02:03:26.850Z,99.90
2019-05-17T02:05:53.455Z,99.90
2019-05-17T02:08:20.081Z,99.90
2019-05-17T02:10:46.664Z,99.90
2019-05-17T02:13:12.965Z,99.90
2019-05-17T02:15:39.315Z,99.90
2019-05-17T02:18:06.999Z,99.90
2019-05-17T02:20:33.815Z,99.90
2019-05-17T02:23:00.460Z,99.90
2019-05-17T02:25:27.288Z,99.90
2019-05-17T02:27:53.861Z,99.90
2019-05-17T02:30:23.303Z,99.90
2019-05-17T02:32:48.969Z,99.90
2019-05-17T02:35:15.585Z,99.90
2019-05-17T02:37:43.388Z,99.90
2019-05-17T02:40:14.642Z,99.90
2019-05-17T02:42:42.681Z,99.90
2019-05-17T02:45:08.554Z,99.90
2019-05-17T02:47:35.012Z,99.90
2019-05-17T02:50:05.180Z,99.90
2019-05-17T02:52:32.649Z,99.90
2019-05-17T02:54:58.007Z,99.90
2019-05-17T02:57:24.701Z,99.90
2019-05-17T02:59:52.578Z,99.90
2019-05-17T03:02:23.315Z,99.90
2019-05-17T03:04:47.464Z,99.90
2019-05-17T03:07:14.077Z,99.90
2019-05-17T03:09:43.162Z,99.90
2019-05-17T03:12:08.763Z,99.90
2019-05-17T03:14:35.188Z,99.90
2019-05-17T03:17:03.244Z,99.90
2019-05-17T03:19:32.586Z,99.90
2019-05-17T03:21:58.244Z,99.90
2019-05-17T03:24:24.678Z,99.90
2019-05-17T03:26:52.627Z,99.90
2019-05-17T03:29:22.430Z,99.90
2019-05-17T03:31:58.070Z,99.90
2019-05-17T03:34:25.792Z,99.90
2019-05-17T03:36:48.195Z,99.90
2019-05-17T03:39:15.402Z,99.90
2019-05-17T03:41:42.952Z,99.90
2019-05-17T03:44:09.500Z,99.90
2019-05-17T03:46:35.991Z,99.90
2019-05-17T03:49:03.790Z,99.90
2019-05-17T03:51:33.280Z,99.90
2019-05-17T03:53:58.640Z,99.90
2019-05-17T03:56:25.041Z,99.90
2019-05-17T03:58:53.127Z,99.90
2019-05-17T04:01:22.943Z,99.90
2019-05-17T04:03:47.982Z,99.90
2019-05-17T04:06:14.435Z,99.90
2019-05-17T04:08:42.486Z,99.90
2019-05-17T04:11:22.088Z,99.90
2019-05-17T04:13:37.299Z,99.90
2019-05-17T04:16:08.715Z,99.90
2019-05-17T04:18:33.620Z,99.90
2019-05-17T04:21:03.134Z,99.90
2019-05-17T04:23:28.374Z,99.90
2019-05-17T04:25:54.925Z,99.90
2019-05-17T04:28:22.973Z,99.90
2019-05-17T04:30:52.519Z,99.90
2019-05-17T04:33:18.014Z,99.90
2019-05-17T04:35:44.415Z,99.90
2019-05-17T04:38:12.778Z,99.90
2019-05-17T04:40:39.072Z,99.90
2019-05-17T04:43:05.457Z,99.90
2019-05-17T04:45:33.605Z,99.90
2019-05-17T04:48:03.663Z,99.90
2019-05-17T04:50:28.634Z,99.90
2019-05-17T04:52:55.028Z,99.90
2019-05-17T04:55:23.082Z,99.90
2019-05-17T04:57:52.857Z,99.90
2019-05-17T05:00:18.126Z,99.90
2019-05-17T05:02:44.737Z,99.90
2019-05-17T05:05:13.463Z,99.90
2019-05-17T05:07:42.864Z,99.90
2019-05-17T05:10:08.406Z,99.90
2019-05-17T05:12:35.075Z,99.90
2019-05-17T05:15:03.566Z,99.90
2019-05-17T05:17:32.668Z,99.90
2019-05-17T05:19:58.388Z,99.90
2019-05-17T05:22:25.002Z,99.90
2019-05-17T05:24:52.458Z,99.90
2019-05-17T05:27:19.037Z,99.90
2019-05-17T05:29:45.757Z,99.90
2019-05-17T05:32:12.358Z,99.90
2019-05-17T05:34:38.941Z,99.90
2019-05-17T05:37:05.237Z,99.90
2019-05-17T05:39:32.069Z,99.90
2019-05-17T05:42:06.975Z,99.90
2019-05-17T05:44:26.942Z,99.90
2019-05-17T05:46:53.300Z,99.90
2019-05-17T05:49:21.689Z,99.90
2019-05-17T05:51:48.042Z,99.90
2019-05-17T05:54:14.545Z,99.90
2019-05-17T05:56:42.257Z,99.90
2019-05-17T05:59:11.885Z,99.90
2019-05-17T06:01:37.631Z,99.90
2019-05-17T06:04:04.103Z,99.90
2019-05-17T06:06:32.194Z,99.90
2019-05-17T06:08:58.773Z,99.90
2019-05-17T06:11:25.641Z,99.90
2019-05-17T06:13:52.445Z,99.90
2019-05-17T06:16:18.850Z,99.90
2019-05-17T06:18:45.336Z,99.90
2019-05-17T06:21:12.285Z,99.90
2019-05-17T06:23:38.856Z,99.90
2019-05-17T06:26:05.386Z,99.90
2019-05-17T06:28:32.028Z,99.90
2019-05-17T06:30:58.337Z,99.90
2019-05-17T06:33:30.458Z,99.90
2019-05-17T06:35:53.082Z,99.90
2019-05-17T06:38:22.265Z,99.90
2019-05-17T06:40:48.014Z,99.90
2019-05-17T06:43:14.482Z,99.90
2019-05-17T06:45:41.888Z,99.90
2019-05-17T06:48:08.518Z,99.90
2019-05-17T06:50:34.999Z,99.90
2019-05-17T06:53:03.248Z,99.90
2019-05-17T06:55:31.416Z,99.90
2019-05-17T06:57:57.646Z,99.90
2019-05-17T07:00:24.415Z,99.90
2019-05-17T07:02:50.850Z,99.90
2019-05-17T07:05:20.051Z,99.90
2019-05-17T07:07:46.551Z,99.90
2019-05-17T07:10:13.287Z,99.90
2019-05-17T07:12:54.148Z,99.90
2019-05-17T07:15:10.598Z,99.90
2019-05-17T07:17:36.734Z,99.90
2019-05-17T07:20:03.626Z,99.90
2019-05-17T07:22:30.096Z,99.90
2019-05-17T07:24:56.629Z,99.90
2019-05-17T07:27:22.870Z,99.90
2019-05-17T07:29:49.764Z,99.90
2019-05-17T07:32:16.192Z,99.90
2019-05-17T07:34:42.443Z,99.90
2019-05-17T07:37:10.540Z,99.90
2019-05-17T07:39:40.007Z,99.90
2019-05-17T07:42:05.315Z,99.90
2019-05-17T07:44:31.804Z,99.90
2019-05-17T07:47:00.039Z,99.90
2019-05-17T07:49:26.552Z,98.20
2019-05-17T07:51:53.018Z,98.40
2019-05-17T07:54:19.802Z,97.90
2019-05-17T07:56:46.294Z,97.90
2019-05-17T07:59:12.809Z,96.80
2019-05-17T08:01:41.295Z,96.40
2019-05-17T08:04:09.846Z,95.70
2019-05-17T08:06:35.723Z,95.30
2019-05-17T08:09:04.687Z,93.40
2019-05-17T08:11:31.309Z,93.00
2019-05-17T08:13:59.698Z,92.90
2019-05-17T08:16:25.982Z,92.10
2019-05-17T08:18:52.579Z,91.40
2019-05-17T08:21:19.913Z,91.00
2019-05-17T08:23:46.550Z,91.00
2019-05-17T08:26:13.079Z,90.80
2019-05-17T08:28:40.425Z,90.70
2019-05-17T08:31:06.896Z,91.20
2019-05-17T08:33:33.476Z,90.40
2019-05-17T08:35:59.972Z,89.90
2019-05-17T08:38:26.433Z,90.70
2019-05-17T08:40:52.927Z,90.50
2019-05-17T08:43:21.548Z,89.70
2019-05-17T08:45:50.046Z,89.20
2019-05-17T08:48:16.334Z,89.30
2019-05-17T08:50:42.834Z,90.00
2019-05-17T08:53:10.674Z,90.30
2019-05-17T08:55:37.532Z,88.70
2019-05-17T08:58:04.018Z,86.70
2019-05-17T09:00:31.401Z,87.50
2019-05-17T09:03:00.131Z,88.00
2019-05-17T09:05:26.658Z,84.80
2019-05-17T09:07:53.207Z,84.90
2019-05-17T09:10:20.801Z,86.80
2019-05-17T09:12:50.082Z,87.90
2019-05-17T09:15:15.605Z,87.50
2019-05-17T09:17:41.876Z,85.70
2019-05-17T09:20:10.680Z,85.00
2019-05-17T09:22:39.656Z,83.50
2019-05-17T09:25:06.178Z,81.70
2019-05-17T09:27:32.857Z,83.90
2019-05-17T09:30:00.017Z,82.60
2019-05-17T09:32:26.705Z,82.60
2019-05-17T09:34:53.312Z,83.40
2019-05-17T09:37:22.326Z,80.80
2019-05-17T09:39:49.236Z,82.90
2019-05-17T09:42:15.656Z,80.40
2019-05-17T09:44:42.018Z,82.50
2019-05-17T09:47:10.144Z,81.50
2019-05-17T09:49:36.701Z,80.00
2019-05-17T09:52:03.260Z,82.50
2019-05-17T09:54:41.349Z,84.20
2019-05-17T09:57:00.295Z,83.80
2019-05-17T09:59:26.086Z,82.10
2019-05-17T10:01:52.714Z,81.80
2019-05-17T10:04:19.921Z,82.90
2019-05-17T10:06:46.393Z,84.30
2019-05-17T10:09:12.863Z,84.60
2019-05-17T10:11:39.939Z,83.50
2019-05-17T10:14:06.482Z,84.10
2019-05-17T10:16:33.056Z,86.30
2019-05-17T10:19:00.074Z,88.30
2019-05-17T10:21:26.596Z,87.90
2019-05-17T10:23:52.969Z,88.00
2019-05-17T10:26:19.850Z,88.70
2019-05-17T10:28:46.484Z,87.00
2019-05-17T10:31:13.025Z,86.40
2019-05-17T10:33:40.105Z,86.60
2019-05-17T10:36:06.647Z,86.10
2019-05-17T10:38:33.073Z,85.40
2019-05-17T10:40:59.553Z,84.90
2019-05-17T10:43:25.935Z,86.00
2019-05-17T10:45:52.465Z,86.80
2019-05-17T10:48:21.233Z,86.80
2019-05-17T10:50:49.512Z,86.70
2019-05-17T10:53:15.684Z,85.70
2019-05-17T10:55:42.403Z,86.00
2019-05-17T10:58:09.945Z,86.30
2019-05-17T11:00:36.757Z,85.60
2019-05-17T11:03:03.304Z,85.80
2019-05-17T11:05:30.845Z,84.80
2019-05-17T11:07:59.765Z,85.20
2019-05-17T11:10:26.105Z,85.10
2019-05-17T11:12:52.560Z,85.40
2019-05-17T11:15:19.038Z,85.60
2019-05-17T11:17:45.400Z,85.00
2019-05-17T11:20:13.389Z,85.60
2019-05-17T11:22:39.889Z,85.20
2019-05-17T11:25:06.595Z,84.90
2019-05-17T11:27:33.473Z,84.30
2019-05-17T11:29:59.899Z,82.70
2019-05-17T11:32:26.379Z,82.80
2019-05-17T11:34:52.898Z,83.50
2019-05-17T11:37:19.502Z,82.90
2019-05-17T11:39:45.993Z,83.80
2019-05-17T11:42:12.543Z,84.60
2019-05-17T11:44:39.053Z,84.50
2019-05-17T11:47:05.692Z,85.20
2019-05-17T11:49:31.966Z,85.80
2019-05-17T11:51:58.457Z,84.00
2019-05-17T11:54:25.041Z,83.00
2019-05-17T11:56:51.558Z,84.30
2019-05-17T11:59:18.080Z,84.40
2019-05-17T12:01:44.553Z,83.20
2019-05-17T12:04:11.053Z,82.90
2019-05-17T12:06:37.660Z,82.50
2019-05-17T12:09:05.241Z,83.00
2019-05-17T12:11:31.714Z,83.00
2019-05-17T12:13:58.194Z,83.00
2019-05-17T12:16:24.692Z,82.80
2019-05-17T12:18:51.089Z,80.50
2019-05-17T12:21:17.577Z,79.90
2019-05-17T12:23:43.950Z,79.70
2019-05-17T12:26:10.432Z,80.30
2019-05-17T12:28:36.740Z,79.90
2019-05-17T12:31:03.113Z,78.30
2019-05-17T12:33:29.354Z,77.60
2019-05-17T12:35:55.990Z,77.80
2019-05-17T12:38:22.260Z,77.90
2019-05-17T12:40:48.726Z,77.70
2019-05-17T12:43:15.209Z,77.90
2019-05-17T12:45:41.701Z,76.50
2019-05-17T12:48:08.188Z,76.60
2019-05-17T12:50:34.592Z,77.10
2019-05-17T12:53:00.848Z,77.50
2019-05-17T12:55:27.487Z,77.40
2019-05-17T12:57:53.993Z,76.70
2019-05-17T13:00:20.998Z,76.60
2019-05-17T13:02:47.475Z,77.30
2019-05-17T13:05:13.858Z,76.10
2019-05-17T13:07:40.667Z,75.70
2019-05-17T13:10:08.110Z,74.80
2019-05-17T13:12:35.859Z,75.40
2019-05-17T13:15:06.083Z,74.60
2019-05-17T13:17:32.562Z,75.80
2019-05-17T13:19:59.085Z,73.60
2019-05-17T13:22:25.651Z,74.50
2019-05-17T13:24:52.037Z,75.20
2019-05-17T13:27:18.558Z,75.30
2019-05-17T13:29:45.151Z,74.80
2019-05-17T13:32:11.511Z,74.70
2019-05-17T13:34:38.064Z,76.70
2019-05-17T13:37:04.725Z,76.30
2019-05-17T13:39:31.049Z,76.80
2019-05-17T13:41:57.433Z,77.10
2019-05-17T13:44:23.901Z,77.30
2019-05-17T13:46:50.452Z,77.70
2019-05-17T13:49:16.954Z,79.40
2019-05-17T13:51:43.547Z,78.70
2019-05-17T13:54:10.172Z,79.40
2019-05-17T13:56:36.732Z,79.60
2019-05-17T13:59:03.344Z,79.90
2019-05-17T14:01:29.843Z,80.20
2019-05-17T14:03:56.439Z,80.20
2019-05-17T14:06:23.227Z,78.60
2019-05-17T14:08:49.592Z,77.10
2019-05-17T14:11:16.000Z,76.80
2019-05-17T14:13:42.513Z,76.70
2019-05-17T14:16:08.750Z,71.00
2019-05-17T14:18:35.229Z,68.10
2019-05-17T14:21:01.578Z,68.70
2019-05-17T14:23:27.860Z,68.50
2019-05-17T14:25:54.147Z,70.60
2019-05-17T14:28:20.742Z,72.10
2019-05-17T14:30:47.157Z,75.00
2019-05-17T14:33:16.044Z,73.80
2019-05-17T14:35:42.450Z,74.00
2019-05-17T14:38:08.756Z,74.30
2019-05-17T14:41:04.917Z,75.30
2019-05-17T14:43:03.448Z,75.40
2019-05-17T14:45:29.820Z,76.00
2019-05-17T14:47:56.532Z,76.10
2019-05-17T14:50:22.916Z,76.90
2019-05-17T14:52:49.307Z,78.50
2019-05-17T14:55:15.940Z,78.30
2019-05-17T14:57:43.162Z,80.40
2019-05-17T15:00:10.022Z,79.90
2019-05-17T15:02:36.714Z,79.80
2019-05-17T15:05:04.517Z,80.10
2019-05-17T15:07:31.013Z,78.90
2019-05-17T15:09:57.508Z,79.40
2019-05-17T15:12:28.359Z,81.30
2019-05-17T15:14:52.193Z,81.10
2019-05-17T15:17:18.803Z,82.10
2019-05-17T15:19:45.203Z,80.60
2019-05-17T15:22:11.453Z,79.90
2019-05-17T15:24:37.821Z,79.80
2019-05-17T15:27:06.184Z,80.70
2019-05-17T15:29:32.482Z,79.80
2019-05-17T15:31:58.881Z,80.30
2019-05-17T15:34:25.296Z,80.90
2019-05-17T15:36:51.798Z,81.10
2019-05-17T15:39:18.183Z,82.00
2019-05-17T15:41:44.632Z,83.20
2019-05-17T15:44:11.052Z,82.40
2019-05-17T15:46:37.454Z,81.90
2019-05-17T15:49:03.927Z,81.30
2019-05-17T15:51:30.336Z,81.30
2019-05-17T15:53:57.013Z,80.50
2019-05-17T15:56:23.394Z,81.40
2019-05-17T15:58:49.807Z,81.50
2019-05-17T16:01:16.303Z,82.20
2019-05-17T16:03:42.675Z,82.80
2019-05-17T16:06:09.258Z,81.80
2019-05-17T16:08:35.630Z,81.50
2019-05-17T16:11:02.098Z,80.90
2019-05-17T16:13:28.395Z,81.50
2019-05-17T16:15:54.757Z,82.30
2019-05-17T16:18:21.223Z,82.50
2019-05-17T16:20:47.689Z,82.00
2019-05-17T16:23:14.209Z,81.40
2019-05-17T16:25:40.575Z,81.60
2019-05-17T16:28:07.190Z,82.30
2019-05-17T16:30:33.602Z,82.10
2019-05-17T16:33:00.020Z,81.70
2019-05-17T16:35:26.505Z,81.60
2019-05-17T16:37:52.763Z,81.30
2019-05-17T16:40:19.139Z,81.30
2019-05-17T16:42:45.506Z,81.20
2019-05-17T16:45:13.789Z,80.80
2019-05-17T16:47:40.295Z,80.30
2019-05-17T16:50:07.071Z,80.60
2019-05-17T16:52:33.553Z,79.80
2019-05-17T16:54:59.853Z,79.80
2019-05-17T16:57:26.311Z,79.90
2019-05-17T16:59:52.700Z,79.60
2019-05-17T17:02:19.256Z,79.80
2019-05-17T17:04:45.776Z,80.10
2019-05-17T17:07:12.218Z,80.70
2019-05-17T17:09:38.726Z,80.90
2019-05-17T17:12:05.329Z,81.20
2019-05-17T17:14:31.742Z,81.30
2019-05-17T17:16:58.211Z,81.50
2019-05-17T17:19:24.679Z,81.60
2019-05-17T17:21:51.157Z,81.70
2019-05-17T17:24:17.560Z,81.80
2019-05-17T17:26:43.934Z,82.10
2019-05-17T17:29:10.417Z,82.50
2019-05-17T17:31:36.946Z,83.30
2019-05-17T17:34:03.417Z,83.90
2019-05-17T17:36:29.739Z,84.00
2019-05-17T17:38:56.246Z,84.00
2019-05-17T17:41:25.848Z,84.00
2019-05-17T17:43:58.634Z,83.60
2019-05-17T17:46:19.580Z,83.90
2019-05-17T17:48:46.062Z,83.80
2019-05-17T17:51:12.451Z,83.70
2019-05-17T17:53:38.712Z,84.10
2019-05-17T17:56:05.210Z,84.40
2019-05-17T17:58:31.625Z,85.60
2019-05-17T18:00:58.267Z,84.40
2019-05-17T18:03:24.759Z,84.40
2019-05-17T18:05:51.225Z,84.40
2019-05-17T18:08:17.674Z,84.70
2019-05-17T18:10:46.577Z,85.00
2019-05-17T18:13:12.486Z,85.00
2019-05-17T18:15:42.548Z,85.20
2019-05-17T18:18:09.038Z,85.50
2019-05-17T18:20:35.612Z,85.80
2019-05-17T18:23:02.075Z,85.80
2019-05-17T18:25:28.532Z,85.40
2019-05-17T18:27:55.013Z,85.90
2019-05-17T18:30:21.596Z,85.40
2019-05-17T18:32:51.434Z,85.60
2019-05-17T18:35:17.864Z,86.00
2019-05-17T18:37:44.349Z,86.20
2019-05-17T18:40:10.908Z,86.40
2019-05-17T18:42:37.185Z,86.90
2019-05-17T18:45:05.354Z,86.40
2019-05-17T18:47:32.827Z,86.20
2019-05-17T18:49:59.268Z,86.00
2019-05-17T18:52:25.783Z,86.00
2019-05-17T18:54:53.559Z,85.90
2019-05-17T18:57:20.033Z,85.70
2019-05-17T18:59:46.465Z,85.90
2019-05-17T19:02:12.878Z,85.80
2019-05-17T19:04:39.392Z,85.70
2019-05-17T19:07:05.810Z,85.90
2019-05-17T19:09:32.270Z,86.30
2019-05-17T19:11:58.723Z,86.90
2019-05-17T19:14:25.087Z,87.40
2019-05-17T19:16:51.461Z,87.30
2019-05-17T19:19:17.730Z,88.00
2019-05-17T19:21:44.370Z,88.60
2019-05-17T19:24:10.949Z,89.20
2019-05-17T19:26:37.346Z,90.00
2019-05-17T19:29:03.848Z,90.40
2019-05-17T19:31:30.117Z,90.80
2019-05-17T19:33:56.519Z,91.20
2019-05-17T19:36:23.067Z,91.60
2019-05-17T19:38:49.526Z,92.10
2019-05-17T19:41:15.893Z,92.40
2019-05-17T19:43:42.654Z,92.90
2019-05-17T19:46:09.125Z,93.50
2019-05-17T19:48:35.615Z,94.10
2019-05-17T19:51:02.129Z,94.30
2019-05-17T19:53:28.613Z,94.90
2019-05-17T19:55:54.974Z,95.30
2019-05-17T19:58:21.357Z,95.70
2019-05-17T20:00:47.862Z,96.30
2019-05-17T20:03:14.324Z,96.80
2019-05-17T20:05:40.815Z,97.50
2019-05-17T20:08:07.347Z,98.00
2019-05-17T20:10:33.789Z,98.50
2019-05-17T20:13:00.272Z,99.00
2019-05-17T20:15:34.599Z,99.50
2019-05-17T20:17:55.115Z,99.90
2019-05-17T20:20:21.651Z,99.90
2019-05-17T20:22:48.150Z,99.90
2019-05-17T20:25:14.728Z,99.90
2019-05-17T20:27:41.184Z,99.90
2019-05-17T20:30:09.011Z,99.90
2019-05-17T20:32:35.511Z,99.90
2019-05-17T20:35:02.709Z,99.90
2019-05-17T20:37:29.232Z,99.90
2019-05-17T20:39:55.694Z,99.90
2019-05-17T20:42:22.181Z,99.90
2019-05-17T20:44:48.445Z,99.90
2019-05-17T20:47:14.809Z,99.90
2019-05-17T20:49:41.319Z,99.90
2019-05-17T20:52:07.888Z,99.90
2019-05-17T20:54:34.535Z,99.90
2019-05-17T20:57:00.984Z,99.90
2019-05-17T20:59:27.341Z,99.90
2019-05-17T21:01:53.866Z,99.90
2019-05-17T21:04:20.133Z,99.90
2019-05-17T21:06:46.629Z,99.90
2019-05-17T21:09:12.990Z,99.90
2019-05-17T21:11:39.461Z,99.90
2019-05-17T21:14:05.952Z,99.90
2019-05-17T21:16:32.324Z,99.90
2019-05-17T21:18:58.717Z,99.90
2019-05-17T21:21:24.980Z,99.90
2019-05-17T21:23:51.454Z,99.90
2019-05-17T21:26:17.955Z,99.90
2019-05-17T21:28:47.192Z,99.90
2019-05-17T21:31:12.630Z,99.90
2019-05-17T21:33:39.017Z,99.90
2019-05-17T21:36:05.639Z,99.90
2019-05-17T21:38:32.022Z,99.90
2019-05-17T21:40:58.615Z,99.90
2019-05-17T21:43:25.249Z,99.90
2019-05-17T21:46:03.284Z,99.90
2019-05-17T21:48:21.789Z,99.90
2019-05-17T21:50:48.233Z,99.90
2019-05-17T21:53:14.558Z,99.90
2019-05-17T21:55:40.917Z,99.90
2019-05-17T21:58:07.443Z,99.90
2019-05-17T22:00:51.457Z,99.90
2019-05-17T22:03:17.809Z,99.90
2019-05-17T22:05:44.278Z,99.90
2019-05-17T22:08:10.986Z,99.90
2019-05-17T22:10:37.508Z,99.90
2019-05-17T22:13:03.878Z,99.90
2019-05-17T22:15:30.372Z,99.90
2019-05-17T22:17:56.840Z,99.90
2019-05-17T22:20:23.310Z,99.90
2019-05-17T22:22:49.850Z,99.90
2019-05-17T22:25:16.299Z,99.90
2019-05-17T22:27:42.696Z,99.90
2019-05-17T22:30:09.198Z,99.90
2019-05-17T22:32:35.691Z,99.90
2019-05-17T22:35:02.750Z,99.90
2019-05-17T22:37:29.254Z,99.90
2019-05-17T22:39:55.619Z,99.90
2019-05-17T22:42:21.911Z,99.90
2019-05-17T22:44:48.300Z,99.90
2019-05-17T22:47:14.664Z,99.90
2019-05-17T22:49:41.164Z,99.90
2019-05-17T22:52:07.485Z,99.90
2019-05-17T22:54:33.877Z,99.90
2019-05-17T22:57:00.245Z,99.90
2019-05-17T22:59:26.501Z,99.90
2019-05-17T23:01:52.943Z,99.90
2019-05-17T23:04:19.389Z,99.90
2019-05-17T23:06:45.842Z,99.90
2019-05-17T23:09:12.347Z,99.90
2019-05-17T23:11:38.872Z,99.90
2019-05-17T23:14:05.343Z,99.90
2019-05-17T23:16:31.705Z,99.90
2019-05-17T23:19:10.451Z,99.90
2019-05-17T23:21:37.249Z,99.90
2019-05-17T23:24:03.835Z,99.90
2019-05-17T23:26:30.187Z,99.90
2019-05-17T23:28:56.734Z,99.90
2019-05-17T23:31:23.160Z,99.90
2019-05-17T23:33:49.438Z,99.90
2019-05-17T23:36:15.905Z,99.90
2019-05-17T23:38:42.180Z,99.90
2019-05-17T23:41:08.703Z,99.90
2019-05-17T23:43:35.077Z,99.90
2019-05-17T23:46:01.452Z,99.90
2019-05-17T23:48:27.712Z,99.90
2019-05-17T23:50:53.975Z,99.90
2019-05-17T23:53:20.398Z,99.90
2019-05-17T23:55:46.812Z,99.90
2019-05-17T23:58:13.238Z,99.90
